Time;durP1;ratioP1;P1;durP2;ratioP2;P2;SDS_P1;SDS_P2;PMS_P1;PMS_P2;Temp;Humidity;BMP_temperature;BMP_pressure;BME280_temperature;BME280_humidity;BME280_pressure;Samples;Min_cycle;Max_cycle;Signal;HPM_P1;HPM_P2
2021/09/07 00:00:31;;;;;;;7.87;7.03;;;;;;;;;;6371347;22;20500;-72
2021/09/07 00:02:57;;;;;;;8.47;7.57;;;;;;;;;;6382052;22;20374;-72
2021/09/07 00:05:23;;;;;;;9.03;8.10;;;;;;;;;;6382133;22;20453;-72
2021/09/07 00:07:49;;;;;;;10.23;9.00;;;;;;;;;;6382156;22;20837;-72
2021/09/07 00:10:15;;;;;;;8.50;7.70;;;;;;;;;;6382028;22;20416;-73
2021/09/07 00:15:44;;;;;;;9.57;8.50;;;;;;;;;;6381756;22;20665;-72
2021/09/07 00:18:10;;;;;;;9.83;8.67;;;;;;;;;;6381817;22;20368;-71
2021/09/07 00:20:36;;;;;;;11.27;9.23;;;;;;;;;;6371644;22;20386;-71
2021/09/07 00:23:02;;;;;;;12.00;7.80;;;;;;;;;;6381873;22;20853;-72
2021/09/07 00:25:28;;;;;;;8.70;7.90;;;;;;;;;;6381489;22;20419;-71
2021/09/07 00:30:58;;;;;;;9.50;7.83;;;;;;;;;;6381952;22;20378;-72
2021/09/07 00:33:23;;;;;;;9.90;9.00;;;;;;;;;;6370627;22;20843;-71
2021/09/07 00:35:49;;;;;;;8.70;7.83;;;;;;;;;;6381711;22;20369;-72
2021/09/07 00:38:15;;;;;;;9.83;8.60;;;;;;;;;;6381794;22;20379;-71
2021/09/07 00:40:41;;;;;;;9.53;8.47;;;;;;;;;;6381543;22;20822;-72
2021/09/07 00:46:11;;;;;;;9.43;8.47;;;;;;;;;;6381730;22;20397;-72
2021/09/07 00:48:37;;;;;;;9.97;7.90;;;;;;;;;;6370918;22;20375;-71
2021/09/07 00:51:03;;;;;;;9.40;8.50;;;;;;;;;;6371133;22;20666;-72
2021/09/07 00:53:29;;;;;;;8.83;7.90;;;;;;;;;;6371397;22;20398;-71
2021/09/07 00:55:57;;;;;;;8.30;7.17;;;;;;;;;;6381486;22;20875;-72
2021/09/07 01:01:27;;;;;;;8.67;7.87;;;;;;;;;;6381579;22;20370;-72
2021/09/07 01:03:53;;;;;;;9.17;8.27;;;;;;;;;;6370586;22;20415;-72
2021/09/07 01:06:19;;;;;;;11.80;8.20;;;;;;;;;;6381277;22;20450;-71
2021/09/07 01:08:45;;;;;;;10.37;8.47;;;;;;;;;;6381195;22;20657;-72
2021/09/07 01:11:13;;;;;;;9.40;8.50;;;;;;;;;;6381205;22;20370;-73
2021/09/07 01:16:43;;;;;;;9.87;8.87;;;;;;;;;;6381324;22;20370;-73
2021/09/07 01:19:09;;;;;;;10.43;9.43;;;;;;;;;;6381139;22;20375;-70
2021/09/07 01:21:35;;;;;;;11.93;9.40;;;;;;;;;;6381275;22;20806;-72
2021/09/07 01:24:01;;;;;;;8.70;7.23;;;;;;;;;;6381298;22;20495;-73
2021/09/07 01:26:27;;;;;;;9.30;8.30;;;;;;;;;;6381011;22;20893;-73
2021/09/07 01:28:53;;;;;;;8.00;7.10;;;;;;;;;;6370567;22;20420;-72
2021/09/07 01:31:19;;;;;;;9.43;8.53;;;;;;;;;;6381143;22;20360;-71
2021/09/07 01:33:47;;;;;;;9.70;8.30;;;;;;;;;;6381247;22;20402;-73
2021/09/07 01:36:14;;;;;;;10.20;9.10;;;;;;;;;;6369962;22;20470;-72
2021/09/07 01:38:40;;;;;;;10.00;8.27;;;;;;;;;;6381165;22;20450;-71
2021/09/07 01:41:06;;;;;;;9.13;8.00;;;;;;;;;;6380946;22;20442;-72
2021/09/07 01:46:35;;;;;;;10.10;8.00;;;;;;;;;;6381180;22;20401;-72
2021/09/07 01:49:01;;;;;;;9.50;8.57;;;;;;;;;;6381011;22;20363;-72
2021/09/07 01:51:27;;;;;;;9.10;7.90;;;;;;;;;;6381044;22;20359;-71
2021/09/07 01:53:53;;;;;;;9.80;8.80;;;;;;;;;;6381230;22;20691;-71
2021/09/07 01:56:19;;;;;;;9.70;8.13;;;;;;;;;;6380654;22;20370;-72
2021/09/07 02:01:49;;;;;;;8.80;7.90;;;;;;;;;;6380961;22;20381;-72
2021/09/07 02:04:15;;;;;;;11.70;8.97;;;;;;;;;;6380415;22;20811;-71
2021/09/07 02:06:41;;;;;;;9.53;8.50;;;;;;;;;;6380833;22;20371;-72
2021/09/07 02:09:07;;;;;;;11.13;9.20;;;;;;;;;;6380776;22;20466;-72
2021/09/07 02:11:33;;;;;;;9.53;8.17;;;;;;;;;;6380521;22;20367;-72
2021/09/07 02:17:03;;;;;;;10.83;9.70;;;;;;;;;;6380344;22;20464;-71
2021/09/07 02:19:29;;;;;;;12.00;8.80;;;;;;;;;;6370459;22;20734;-72
2021/09/07 02:21:55;;;;;;;10.77;8.70;;;;;;;;;;6380820;22;20367;-72
2021/09/07 02:24:21;;;;;;;8.77;7.87;;;;;;;;;;6379604;22;20855;-72
2021/09/07 02:26:47;;;;;;;9.27;8.37;;;;;;;;;;6380321;22;20575;-71
2021/09/07 02:32:16;;;;;;;10.57;9.33;;;;;;;;;;6380849;22;20864;-71
2021/09/07 02:34:42;;;;;;;10.50;9.40;;;;;;;;;;6370453;22;20370;-72
2021/09/07 02:37:10;;;;;;;9.73;8.73;;;;;;;;;;6380417;22;20375;-72
2021/09/07 02:39:36;;;;;;;9.57;8.57;;;;;;;;;;6380574;22;20430;-71
2021/09/07 02:42:03;;;;;;;10.50;8.33;;;;;;;;;;6380302;22;20383;-72
2021/09/07 02:47:33;;;;;;;9.57;8.63;;;;;;;;;;6380697;22;20373;-71
2021/09/07 02:49:59;;;;;;;9.10;8.10;;;;;;;;;;6380652;22;20367;-72
2021/09/07 02:52:25;;;;;;;9.87;8.90;;;;;;;;;;6380579;22;20694;-72
2021/09/07 02:54:51;;;;;;;10.27;8.67;;;;;;;;;;6380704;22;20460;-72
2021/09/07 02:57:17;;;;;;;12.33;8.23;;;;;;;;;;6380286;22;20371;-72
2021/09/07 02:59:43;;;;;;;9.47;8.57;;;;;;;;;;6369909;22;20371;-72
2021/09/07 03:02:09;;;;;;;11.23;9.60;;;;;;;;;;6380439;22;20383;-71
2021/09/07 03:04:35;;;;;;;9.43;8.37;;;;;;;;;;6370256;22;20502;-71
2021/09/07 03:07:01;;;;;;;9.60;8.60;;;;;;;;;;6380480;22;20367;-72
2021/09/07 03:09:27;;;;;;;12.87;9.60;;;;;;;;;;6380642;22;20376;-72
2021/09/07 03:11:52;;;;;;;10.33;9.23;;;;;;;;;;6380287;22;20876;-71
2021/09/07 03:17:22;;;;;;;13.07;10.30;;;;;;;;;;6382597;22;20489;-72
2021/09/07 03:19:48;;;;;;;13.00;10.57;;;;;;;;;;6371831;22;20395;-71
2021/09/07 03:22:14;;;;;;;13.10;9.80;;;;;;;;;;6382629;22;20371;-71
2021/09/07 03:24:40;;;;;;;14.67;9.83;;;;;;;;;;6382386;22;20784;-72
2021/09/07 03:27:06;;;;;;;11.13;9.93;;;;;;;;;;6382039;22;20418;-72
2021/09/07 03:32:36;;;;;;;14.40;9.87;;;;;;;;;;6382602;22;20466;-72
2021/09/07 03:35:04;;;;;;;11.00;9.80;;;;;;;;;;6382383;22;20399;-72
2021/09/07 03:37:30;;;;;;;12.40;9.60;;;;;;;;;;6372028;22;20684;-72
2021/09/07 03:39:56;;;;;;;14.40;9.60;;;;;;;;;;6371248;22;20902;-72
2021/09/07 03:42:22;;;;;;;10.70;9.60;;;;;;;;;;6381875;22;20450;-71
2021/09/07 03:47:51;;;;;;;11.00;9.90;;;;;;;;;;6382303;22;20458;-72
2021/09/07 03:50:17;;;;;;;12.53;9.63;;;;;;;;;;6382068;22;20401;-71
2021/09/07 03:52:44;;;;;;;12.13;10.10;;;;;;;;;;6382182;22;20390;-71
2021/09/07 03:55:10;;;;;;;16.40;10.23;;;;;;;;;;6381983;22;20367;-71
2021/09/07 03:57:36;;;;;;;11.60;10.40;;;;;;;;;;6381933;22;20744;-72
2021/09/07 04:03:12;;;;;;;11.87;9.90;;;;;;;;;;6382388;22;20404;-71
2021/09/07 04:05:38;;;;;;;10.27;9.17;;;;;;;;;;6381948;22;20498;-72
2021/09/07 04:08:04;;;;;;;14.03;10.27;;;;;;;;;;6382172;22;20370;-71
2021/09/07 04:10:30;;;;;;;12.23;10.20;;;;;;;;;;6381938;22;20927;-72
2021/09/07 04:12:56;;;;;;;9.57;8.63;;;;;;;;;;6381881;22;20363;-71
2021/09/07 04:15:22;;;;;;;11.50;9.60;;;;;;;;;;6381549;22;20371;-71
2021/09/07 04:17:48;;;;;;;11.60;9.97;;;;;;;;;;6371432;22;20450;-72
2021/09/07 04:20:14;;;;;;;13.63;10.40;;;;;;;;;;6381893;22;20957;-72
2021/09/07 04:22:40;;;;;;;10.63;9.53;;;;;;;;;;6370687;22;20368;-71
2021/09/07 04:25:06;;;;;;;11.43;9.93;;;;;;;;;;6381716;22;20425;-71
2021/09/07 04:27:32;;;;;;;14.80;10.47;;;;;;;;;;6381073;22;20493;-71
2021/09/07 04:33:02;;;;;;;17.03;10.23;;;;;;;;;;6381925;22;20397;-72
2021/09/07 04:35:28;;;;;;;15.10;10.70;;;;;;;;;;6381733;22;20430;-72
2021/09/07 04:37:54;;;;;;;13.30;10.60;;;;;;;;;;6371444;22;20378;-72
2021/09/07 04:40:20;;;;;;;14.73;11.30;;;;;;;;;;6381654;22;20359;-72
2021/09/07 04:42:46;;;;;;;12.90;10.83;;;;;;;;;;6371021;22;20523;-72
2021/09/07 04:48:15;;;;;;;12.17;10.90;;;;;;;;;;6381773;22;20374;-72
2021/09/07 04:50:42;;;;;;;12.63;10.17;;;;;;;;;;6381739;22;20356;-72
2021/09/07 04:53:08;;;;;;;13.63;10.40;;;;;;;;;;6381608;22;20684;-72
2021/09/07 04:55:33;;;;;;;14.20;10.80;;;;;;;;;;6371212;22;20467;-72
2021/09/07 04:57:59;;;;;;;14.70;11.07;;;;;;;;;;6381513;22;20442;-72
2021/09/07 05:03:29;;;;;;;12.77;10.53;;;;;;;;;;6377741;22;20754;-72
2021/09/07 05:05:55;;;;;;;14.53;10.80;;;;;;;;;;6381568;22;20399;-72
2021/09/07 05:08:21;;;;;;;14.10;10.80;;;;;;;;;;6371204;22;20830;-72
2021/09/07 05:10:47;;;;;;;13.30;10.93;;;;;;;;;;6367420;22;20379;-72
2021/09/07 05:13:13;;;;;;;11.10;9.87;;;;;;;;;;6381469;22;20492;-73
2021/09/07 05:18:42;;;;;;;13.33;9.93;;;;;;;;;;6381456;22;20402;-71
2021/09/07 05:21:08;;;;;;;20.50;11.43;;;;;;;;;;6370953;22;20376;-72
2021/09/07 05:23:35;;;;;;;12.73;10.50;;;;;;;;;;6381174;22;20450;-72
2021/09/07 05:26:01;;;;;;;13.67;10.87;;;;;;;;;;6370030;22;20442;-71
2021/09/07 05:28:27;;;;;;;14.70;11.03;;;;;;;;;;6381333;22;20387;-71
2021/09/07 05:33:56;;;;;;;15.23;11.73;;;;;;;;;;6381295;22;20382;-71
2021/09/07 05:36:22;;;;;;;15.10;11.63;;;;;;;;;;6381271;22;20395;-71
2021/09/07 05:38:48;;;;;;;20.20;11.00;;;;;;;;;;6380650;22;20842;-72
2021/09/07 05:41:14;;;;;;;15.60;9.87;;;;;;;;;;6377405;22;20375;-72
2021/09/07 05:43:40;;;;;;;13.93;11.13;;;;;;;;;;6380976;22;20830;-72
2021/09/07 05:49:09;;;;;;;19.80;11.60;;;;;;;;;;6381186;22;20878;-71
2021/09/07 05:51:35;;;;;;;17.00;11.00;;;;;;;;;;6342387;22;20396;-72
2021/09/07 05:54:01;;;;;;;16.90;11.40;;;;;;;;;;6381146;22;20382;-72
2021/09/07 05:56:28;;;;;;;16.53;11.67;;;;;;;;;;6370605;22;20390;-72
2021/09/07 05:58:54;;;;;;;25.33;11.70;;;;;;;;;;6370555;22;20889;-72
2021/09/07 06:01:20;;;;;;;23.50;12.20;;;;;;;;;;6370536;22;20508;-71
2021/09/07 06:03:46;;;;;;;26.80;13.27;;;;;;;;;;6380842;22;20407;-72
2021/09/07 06:06:12;;;;;;;25.30;12.27;;;;;;;;;;6381070;22;20398;-71
2021/09/07 06:08:38;;;;;;;19.33;12.23;;;;;;;;;;6373994;22;20374;-72
2021/09/07 06:11:05;;;;;;;30.73;13.60;;;;;;;;;;6371661;22;20398;-72
2021/09/07 06:13:31;;;;;;;21.77;12.40;;;;;;;;;;6370243;22;20427;-72
2021/09/07 06:19:00;;;;;;;18.57;11.67;;;;;;;;;;6380875;22;20378;-72
2021/09/07 06:21:26;;;;;;;19.03;12.43;;;;;;;;;;6370209;22;20446;-72
2021/09/07 06:23:52;;;;;;;17.90;12.60;;;;;;;;;;6380771;22;20479;-72
2021/09/07 06:26:18;;;;;;;20.90;13.00;;;;;;;;;;6369851;22;20422;-73
2021/09/07 06:28:45;;;;;;;19.13;12.67;;;;;;;;;;6380503;22;20371;-72
2021/09/07 06:34:14;;;;;;;16.90;12.50;;;;;;;;;;6380489;22;20432;-72
2021/09/07 06:36:40;;;;;;;12.03;10.83;;;;;;;;;;6380362;22;20371;-72
2021/09/07 06:39:06;;;;;;;16.70;11.00;;;;;;;;;;6380268;22;20702;-72
2021/09/07 06:41:32;;;;;;;13.87;11.60;;;;;;;;;;6380136;22;20363;-72
2021/09/07 06:43:58;;;;;;;14.57;10.93;;;;;;;;;;6380295;22;20407;-72
2021/09/07 06:49:28;;;;;;;12.27;10.03;;;;;;;;;;6380055;22;20374;-72
2021/09/07 06:51:54;;;;;;;15.00;11.30;;;;;;;;;;6372238;22;20367;-72
2021/09/07 06:54:20;;;;;;;13.33;10.87;;;;;;;;;;6383050;22;20370;-72
2021/09/07 06:56:46;;;;;;;17.03;12.33;;;;;;;;;;6382908;22;20653;-71
2021/09/07 06:59:12;;;;;;;17.37;11.70;;;;;;;;;;6344615;22;20490;-72
2021/09/07 07:04:41;;;;;;;22.47;13.57;;;;;;;;;;6382690;22;20514;-72
2021/09/07 07:07:07;;;;;;;16.03;11.23;;;;;;;;;;6372328;22;20405;-72
2021/09/07 07:09:33;;;;;;;14.40;11.60;;;;;;;;;;6382841;22;20890;-72
2021/09/07 07:11:59;;;;;;;12.07;9.67;;;;;;;;;;6382743;22;20446;-72
2021/09/07 07:14:25;;;;;;;18.70;10.57;;;;;;;;;;6373854;22;20379;-73
2021/09/07 07:19:55;;;;;;;12.00;10.40;;;;;;;;;;6384135;22;20374;-74
2021/09/07 07:22:24;;;;;;;16.70;10.50;;;;;;;;;;6384009;22;20697;-73
2021/09/07 07:24:50;;;;;;;20.50;12.00;;;;;;;;;;6378936;22;20752;-73
2021/09/07 07:27:16;;;;;;;15.97;11.47;;;;;;;;;;6381928;22;20430;-71
2021/09/07 07:29:42;;;;;;;10.13;9.13;;;;;;;;;;6372260;22;20469;-71
2021/09/07 07:32:08;;;;;;;12.13;9.90;;;;;;;;;;6381625;22;20882;-71
2021/09/07 07:34:35;;;;;;;12.80;11.23;;;;;;;;;;6371857;22;20395;-70
2021/09/07 07:37:04;;;;;;;13.20;10.57;;;;;;;;;;6371998;22;20400;-70
2021/09/07 07:39:31;;;;;;;17.37;11.80;;;;;;;;;;6372154;22;20449;-71
2021/09/07 07:41:57;;;;;;;22.33;11.33;;;;;;;;;;6382356;22;20371;-71
2021/09/07 07:44:23;;;;;;;17.00;10.90;;;;;;;;;;6382338;22;20957;-71
2021/09/07 07:49:53;;;;;;;13.60;9.80;;;;;;;;;;6381286;22;20473;-70
2021/09/07 07:52:19;;;;;;;13.03;9.90;;;;;;;;;;6382335;22;20444;-71
2021/09/07 07:54:46;;;;;;;10.90;9.33;;;;;;;;;;6382848;22;20367;-71
2021/09/07 07:57:12;;;;;;;16.70;9.97;;;;;;;;;;6382509;22;20456;-71
2021/09/07 07:59:38;;;;;;;14.00;10.20;;;;;;;;;;6372383;22;20367;-71
2021/09/07 08:05:07;;;;;;;12.20;9.63;;;;;;;;;;6380929;22;20452;-71
2021/09/07 08:07:33;;;;;;;9.73;8.70;;;;;;;;;;6380875;22;20865;-71
2021/09/07 08:09:59;;;;;;;9.47;8.47;;;;;;;;;;6380950;22;20383;-71
2021/09/07 08:12:25;;;;;;;11.10;10.00;;;;;;;;;;6380362;22;20751;-71
2021/09/07 08:14:51;;;;;;;11.50;9.80;;;;;;;;;;6381081;22;20390;-71
2021/09/07 08:20:21;;;;;;;10.73;8.70;;;;;;;;;;6382025;22;20508;-73
2021/09/07 08:22:47;;;;;;;11.73;8.67;;;;;;;;;;6380882;22;20443;-73
2021/09/07 08:25:13;;;;;;;10.27;9.20;;;;;;;;;;6380635;22;20896;-72
2021/09/07 08:27:39;;;;;;;9.63;8.70;;;;;;;;;;6380870;22;20428;-72
2021/09/07 08:30:06;;;;;;;10.40;8.23;;;;;;;;;;6380776;22;20838;-72
2021/09/07 08:35:35;;;;;;;10.17;8.30;;;;;;;;;;6380636;22;20377;-72
2021/09/07 08:38:01;;;;;;;10.00;7.87;;;;;;;;;;6370207;22;20363;-72
2021/09/07 08:40:27;;;;;;;7.77;7.07;;;;;;;;;;6380522;22;20711;-72
2021/09/07 08:42:55;;;;;;;9.57;8.67;;;;;;;;;;6370481;22;20371;-72
2021/09/07 08:45:21;;;;;;;8.20;7.47;;;;;;;;;;6370338;22;20509;-71
2021/09/07 08:47:47;;;;;;;7.57;6.70;;;;;;;;;;6380862;22;20761;-72
2021/09/07 08:50:13;;;;;;;8.17;7.37;;;;;;;;;;6380467;22;20360;-72
2021/09/07 08:52:39;;;;;;;8.87;8.07;;;;;;;;;;6369823;22;20375;-71
2021/09/07 08:55:06;;;;;;;9.23;8.37;;;;;;;;;;6380509;22;20366;-72
2021/09/07 08:57:32;;;;;;;10.90;7.37;;;;;;;;;;6380232;22;20454;-71
2021/09/07 09:00:00;;;;;;;8.63;7.83;;;;;;;;;;6380495;22;20378;-72
2021/09/07 09:05:30;;;;;;;8.53;7.73;;;;;;;;;;6380268;22;20486;-72
2021/09/07 09:07:56;;;;;;;8.90;6.63;;;;;;;;;;6380316;22;20846;-72
2021/09/07 09:10:23;;;;;;;9.07;7.50;;;;;;;;;;6380365;22;20375;-72
2021/09/07 09:12:49;;;;;;;9.60;6.80;;;;;;;;;;6369497;22;20467;-72
2021/09/07 09:15:17;;;;;;;8.13;7.43;;;;;;;;;;6380377;22;20379;-73
2021/09/07 09:20:46;;;;;;;7.40;6.67;;;;;;;;;;6380137;22;20887;-73
2021/09/07 09:23:12;;;;;;;8.70;7.37;;;;;;;;;;6380180;22;20375;-71
2021/09/07 09:25:42;;;;;;;8.13;7.33;;;;;;;;;;6379661;22;20726;-71
2021/09/07 09:28:12;;;;;;;9.23;7.97;;;;;;;;;;6369875;22;20394;-71
2021/09/07 09:30:39;;;;;;;11.47;7.83;;;;;;;;;;6369422;22;20557;-71
2021/09/07 09:33:06;;;;;;;13.10;8.13;;;;;;;;;;6380065;22;20368;-71
2021/09/07 09:35:43;;;;;;;10.27;8.00;;;;;;;;;;6379991;22;20393;-71
2021/09/07 09:38:09;;;;;;;7.83;7.13;;;;;;;;;;6369808;22;20864;-71
2021/09/07 09:40:35;;;;;;;8.30;7.50;;;;;;;;;;6379919;22;20367;-71
2021/09/07 09:43:20;;;;;;;8.20;7.50;;;;;;;;;;6369864;22;20525;-71
2021/09/07 09:45:46;;;;;;;7.23;6.63;;;;;;;;;;6379973;22;20461;-71
2021/09/07 09:48:28;;;;;;;9.70;7.70;;;;;;;;;;6379895;22;20395;-71
2021/09/07 09:50:55;;;;;;;14.90;8.13;;;;;;;;;;6379818;22;20376;-71
2021/09/07 09:53:22;;;;;;;9.00;7.57;;;;;;;;;;6379774;22;20856;-71
2021/09/07 09:55:48;;;;;;;9.20;7.03;;;;;;;;;;6379906;22;20835;-71
2021/09/07 09:58:16;;;;;;;10.93;7.43;;;;;;;;;;6379812;22;20451;-71
2021/09/07 10:00:44;;;;;;;8.93;7.60;;;;;;;;;;6379922;22;20741;-72
2021/09/07 10:03:10;;;;;;;8.40;7.60;;;;;;;;;;6369550;22;20372;-72
2021/09/07 10:05:37;;;;;;;8.23;7.07;;;;;;;;;;6369376;22;20435;-73
2021/09/07 10:08:03;;;;;;;8.90;7.30;;;;;;;;;;6379731;22;20364;-73
2021/09/07 10:10:29;;;;;;;8.00;7.20;;;;;;;;;;6375911;22;20382;-73
2021/09/07 10:12:58;;;;;;;8.87;6.90;;;;;;;;;;6379433;22;20453;-73
2021/09/07 10:21:06;;;;;;;8.43;7.53;;;;;;;;;;6379799;22;20432;-72
2021/09/07 10:24:04;;;;;;;9.50;7.70;;;;;;;;;;6379611;22;20455;-72
2021/09/07 10:26:45;;;;;;;7.97;7.17;;;;;;;;;;6368781;22;20439;-72
2021/09/07 10:29:11;;;;;;;12.33;7.60;;;;;;;;;;6369121;22;20845;-73
2021/09/07 10:31:44;;;;;;;9.93;6.90;;;;;;;;;;6369035;22;20383;-73
2021/09/07 10:34:11;;;;;;;7.20;6.60;;;;;;;;;;6378878;22;20431;-73
2021/09/07 10:36:55;;;;;;;8.40;7.23;;;;;;;;;;6368732;22;20822;-73
2021/09/07 10:39:32;;;;;;;8.70;7.83;;;;;;;;;;6380074;22;20364;-72
2021/09/07 10:41:59;;;;;;;8.50;6.90;;;;;;;;;;6385524;22;20830;-73
2021/09/07 10:44:28;;;;;;;11.93;7.23;;;;;;;;;;6380033;22;20419;-73
2021/09/07 10:47:00;;;;;;;12.77;7.07;;;;;;;;;;6379292;22;20699;-72
2021/09/07 10:49:26;;;;;;;8.20;6.40;;;;;;;;;;6378769;22;20509;-73
2021/09/07 10:52:08;;;;;;;11.27;6.70;;;;;;;;;;6368147;22;20382;-73
2021/09/07 10:54:35;;;;;;;7.20;6.50;;;;;;;;;;6368818;22;20363;-73
2021/09/07 10:57:01;;;;;;;9.57;8.30;;;;;;;;;;6378794;22;20403;-73
2021/09/07 10:59:46;;;;;;;7.00;6.30;;;;;;;;;;6368864;22;20906;-73
2021/09/07 11:02:31;;;;;;;9.47;8.00;;;;;;;;;;6369002;22;20379;-71
2021/09/07 11:04:58;;;;;;;8.30;7.60;;;;;;;;;;6379932;22;20418;-71
2021/09/07 11:07:43;;;;;;;7.63;6.83;;;;;;;;;;6379812;22;20748;-72
2021/09/07 11:10:15;;;;;;;7.80;7.00;;;;;;;;;;6369295;22;20387;-71
2021/09/07 11:12:55;;;;;;;7.77;6.87;;;;;;;;;;6379590;22;20366;-71
2021/09/07 11:15:25;;;;;;;9.90;6.90;;;;;;;;;;6369394;22;20389;-71
2021/09/07 11:17:55;;;;;;;11.07;7.43;;;;;;;;;;6369481;22;20672;-72
2021/09/07 11:20:24;;;;;;;7.73;6.10;;;;;;;;;;6369093;22;20850;-71
2021/09/07 11:22:50;;;;;;;7.47;6.63;;;;;;;;;;6369387;22;20375;-71
2021/09/07 11:25:18;;;;;;;7.10;6.50;;;;;;;;;;6368615;22;20430;-72
2021/09/07 11:27:48;;;;;;;7.90;7.10;;;;;;;;;;6380282;22;20704;-72
2021/09/07 11:30:34;;;;;;;8.73;6.40;;;;;;;;;;6370106;22;20697;-70
2021/09/07 11:33:00;;;;;;;7.37;5.70;;;;;;;;;;6368855;22;20381;-71
2021/09/07 11:35:27;;;;;;;7.50;6.80;;;;;;;;;;6376985;22;20359;-71
2021/09/07 11:37:59;;;;;;;7.07;6.47;;;;;;;;;;6382039;22;20366;-71
2021/09/07 11:40:25;;;;;;;6.03;5.43;;;;;;;;;;6381964;22;20347;-72
2021/09/07 11:42:51;;;;;;;6.47;5.83;;;;;;;;;;6371500;22;20375;-72
2021/09/07 11:45:28;;;;;;;6.90;6.20;;;;;;;;;;6381714;22;20446;-71
2021/09/07 11:47:54;;;;;;;7.80;7.10;;;;;;;;;;6382093;22;20445;-70
2021/09/07 11:50:22;;;;;;;8.33;7.47;;;;;;;;;;6380192;22;20367;-71
2021/09/07 11:52:49;;;;;;;7.63;6.90;;;;;;;;;;6370094;22;20748;-71
2021/09/07 11:55:34;;;;;;;6.87;6.27;;;;;;;;;;6369966;22;20379;-73
2021/09/07 11:58:00;;;;;;;7.03;6.40;;;;;;;;;;6380823;22;20767;-72
2021/09/07 12:00:26;;;;;;;7.10;6.40;;;;;;;;;;6380832;22;20452;-73
2021/09/07 12:03:10;;;;;;;6.63;6.03;;;;;;;;;;6380858;22;20375;-72
2021/09/07 12:05:56;;;;;;;6.67;6.07;;;;;;;;;;6370114;22;20526;-73
2021/09/07 12:08:32;;;;;;;6.00;5.40;;;;;;;;;;6376757;22;20383;-72
2021/09/07 12:10:58;;;;;;;8.10;6.87;;;;;;;;;;6369863;22;20902;-71
2021/09/07 12:13:24;;;;;;;8.50;6.93;;;;;;;;;;6380708;22;20363;-71
2021/09/07 12:15:50;;;;;;;7.80;6.60;;;;;;;;;;6370526;22;20379;-71
2021/09/07 12:18:33;;;;;;;8.50;6.43;;;;;;;;;;6380541;22;20367;-71
2021/09/07 12:21:05;;;;;;;7.53;6.83;;;;;;;;;;6369828;22;20379;-72
2021/09/07 12:23:35;;;;;;;6.20;5.60;;;;;;;;;;6370234;22;20427;-71
2021/09/07 12:26:02;;;;;;;7.30;6.60;;;;;;;;;;6380068;22;20527;-71
2021/09/07 12:28:28;;;;;;;6.77;6.17;;;;;;;;;;6380571;22;20364;-71
2021/09/07 12:31:10;;;;;;;6.27;5.67;;;;;;;;;;6380511;22;20374;-71
2021/09/07 12:33:40;;;;;;;6.80;6.10;;;;;;;;;;6370110;22;20375;-71
2021/09/07 12:36:06;;;;;;;7.23;6.53;;;;;;;;;;6370156;22;20421;-71
2021/09/07 12:38:33;;;;;;;7.60;6.90;;;;;;;;;;6380355;22;20355;-72
2021/09/07 12:40:59;;;;;;;8.17;6.70;;;;;;;;;;6379917;22;20374;-72
2021/09/07 12:43:26;;;;;;;11.50;7.90;;;;;;;;;;6380459;22;20387;-71
2021/09/07 12:45:54;;;;;;;7.07;6.37;;;;;;;;;;6380345;22;20739;-72
2021/09/07 12:48:20;;;;;;;7.17;6.57;;;;;;;;;;6369657;22;20378;-72
2021/09/07 12:50:47;;;;;;;7.83;6.30;;;;;;;;;;6369368;22;20386;-72
2021/09/07 12:53:13;;;;;;;7.97;5.80;;;;;;;;;;6380240;22;20398;-73
2021/09/07 12:55:42;;;;;;;8.30;6.50;;;;;;;;;;6380227;22;20363;-72
2021/09/07 12:58:09;;;;;;;7.47;6.70;;;;;;;;;;6369836;22;20432;-71
2021/09/07 13:00:39;;;;;;;7.57;6.70;;;;;;;;;;6380024;22;20355;-72
2021/09/07 13:03:05;;;;;;;6.77;6.23;;;;;;;;;;6380180;22;20861;-71
2021/09/07 13:05:31;;;;;;;8.33;7.00;;;;;;;;;;6379855;22;20419;-72
2021/09/07 13:07:57;;;;;;;7.73;6.30;;;;;;;;;;6380138;22;20477;-72
2021/09/07 13:10:23;;;;;;;8.33;6.53;;;;;;;;;;6382914;22;20406;-71
2021/09/07 13:12:49;;;;;;;7.00;6.30;;;;;;;;;;6386470;22;20742;-72
2021/09/07 13:15:15;;;;;;;7.70;7.00;;;;;;;;;;6380555;22;20672;-72
2021/09/07 13:17:41;;;;;;;8.37;6.67;;;;;;;;;;6379563;22;20370;-72
2021/09/07 13:20:07;;;;;;;7.03;6.43;;;;;;;;;;6367654;22;20379;-72
2021/09/07 13:22:33;;;;;;;7.20;6.50;;;;;;;;;;6378405;22;20417;-71
2021/09/07 13:24:59;;;;;;;8.47;6.43;;;;;;;;;;6340180;22;20423;-71
2021/09/07 13:27:25;;;;;;;7.97;6.43;;;;;;;;;;6378172;22;20422;-71
2021/09/07 13:29:51;;;;;;;7.70;6.90;;;;;;;;;;6378653;22;20394;-71
2021/09/07 13:32:17;;;;;;;7.13;6.53;;;;;;;;;;6368312;22;20372;-72
2021/09/07 13:34:43;;;;;;;7.10;6.40;;;;;;;;;;6378512;22;20733;-73
2021/09/07 13:37:09;;;;;;;7.70;6.90;;;;;;;;;;6378083;22;20401;-73
2021/09/07 13:39:35;;;;;;;7.07;6.47;;;;;;;;;;6378578;22;20367;-72
2021/09/07 13:42:01;;;;;;;6.63;6.03;;;;;;;;;;6378742;22;20367;-72
2021/09/07 13:44:27;;;;;;;6.37;5.77;;;;;;;;;;6378208;22;20403;-72
2021/09/07 13:46:53;;;;;;;6.67;6.03;;;;;;;;;;6378296;22;20433;-73
2021/09/07 13:52:23;;;;;;;7.70;7.00;;;;;;;;;;6377408;22;20366;-71
2021/09/07 13:54:49;;;;;;;7.80;6.20;;;;;;;;;;6377922;22;20368;-71
2021/09/07 13:57:15;;;;;;;8.37;6.67;;;;;;;;;;6377892;22;20363;-71
2021/09/07 13:59:41;;;;;;;7.13;6.53;;;;;;;;;;6377612;22;20378;-71
2021/09/07 14:02:07;;;;;;;6.20;5.70;;;;;;;;;;6377824;22;20438;-71
2021/09/07 14:07:36;;;;;;;6.30;5.70;;;;;;;;;;6378126;22;20450;-71
2021/09/07 14:10:03;;;;;;;6.93;6.23;;;;;;;;;;6377935;22;20681;-72
2021/09/07 14:12:29;;;;;;;5.93;5.33;;;;;;;;;;6377446;22;20581;-71
2021/09/07 14:14:55;;;;;;;7.13;6.43;;;;;;;;;;6377658;22;20715;-71
2021/09/07 14:23:09;;;;;;;6.60;6.00;;;;;;;;;;6379135;22;20362;-71
2021/09/07 14:25:35;;;;;;;8.43;6.23;;;;;;;;;;6367874;22;20447;-72
2021/09/07 14:28:01;;;;;;;8.57;5.97;;;;;;;;;;6378865;22;20427;-71
2021/09/07 14:30:28;;;;;;;7.70;6.87;;;;;;;;;;6340471;22;20426;-71
2021/09/07 14:32:54;;;;;;;5.60;4.90;;;;;;;;;;6340427;22;20901;-71
2021/09/07 14:35:20;;;;;;;6.87;6.27;;;;;;;;;;6378780;22;20382;-71
2021/09/07 14:37:46;;;;;;;6.83;6.13;;;;;;;;;;6378602;22;20367;-71
2021/09/07 14:40:12;;;;;;;6.00;5.20;;;;;;;;;;6340815;22;20398;-72
2021/09/07 14:42:39;;;;;;;6.40;5.80;;;;;;;;;;6379497;22;20444;-71
2021/09/07 14:45:05;;;;;;;7.90;7.10;;;;;;;;;;6379105;22;20423;-71
2021/09/07 14:47:32;;;;;;;7.17;6.10;;;;;;;;;;6368609;22;20367;-71
2021/09/07 14:53:01;;;;;;;6.17;5.57;;;;;;;;;;6380462;22;20386;-71
2021/09/07 14:55:27;;;;;;;8.17;6.40;;;;;;;;;;6380285;22;20822;-71
2021/09/07 14:57:53;;;;;;;5.93;5.37;;;;;;;;;;6370255;22;20379;-71
2021/09/07 15:00:19;;;;;;;8.53;5.53;;;;;;;;;;6380509;22;20460;-71
2021/09/07 15:02:45;;;;;;;7.60;6.97;;;;;;;;;;6380229;22;20851;-71
2021/09/07 15:05:11;;;;;;;7.30;6.60;;;;;;;;;;6379823;22;20465;-72
2021/09/07 15:07:37;;;;;;;7.27;6.57;;;;;;;;;;6368102;22;20413;-71
2021/09/07 15:10:03;;;;;;;6.37;5.80;;;;;;;;;;6379178;22;20359;-70
2021/09/07 15:12:31;;;;;;;6.80;6.20;;;;;;;;;;6377147;22;20415;-71
2021/09/07 15:14:57;;;;;;;7.23;6.53;;;;;;;;;;6381297;22;20370;-71
2021/09/07 15:17:23;;;;;;;6.67;6.00;;;;;;;;;;6370590;22;20355;-72
2021/09/07 15:22:53;;;;;;;9.03;6.00;;;;;;;;;;6381023;22;20428;-71
2021/09/07 15:25:19;;;;;;;7.93;6.03;;;;;;;;;;6379395;22;20425;-73
2021/09/07 15:27:46;;;;;;;7.20;6.50;;;;;;;;;;6380684;22;20734;-71
2021/09/07 15:30:15;;;;;;;6.57;5.97;;;;;;;;;;6380989;22;20810;-71
2021/09/07 15:32:41;;;;;;;6.90;6.20;;;;;;;;;;6370451;22;20456;-71
2021/09/07 15:38:11;;;;;;;6.97;6.27;;;;;;;;;;6380743;22;20370;-70
2021/09/07 15:40:37;;;;;;;7.00;6.00;;;;;;;;;;6342114;22;20391;-68
2021/09/07 15:43:03;;;;;;;11.03;6.53;;;;;;;;;;6380328;22;20378;-66
2021/09/07 15:45:29;;;;;;;8.40;7.00;;;;;;;;;;6380799;22;20515;-70
2021/09/07 15:47:55;;;;;;;7.97;6.17;;;;;;;;;;6380738;22;20398;-70
2021/09/07 15:53:24;;;;;;;12.07;6.37;;;;;;;;;;6381386;22;20465;-72
2021/09/07 15:55:50;;;;;;;6.27;5.67;;;;;;;;;;6370345;22;20689;-71
2021/09/07 15:58:16;;;;;;;8.50;6.57;;;;;;;;;;6370491;22;20371;-70
2021/09/07 16:00:42;;;;;;;7.63;6.93;;;;;;;;;;6370293;22;20631;-70
2021/09/07 16:03:08;;;;;;;7.17;6.13;;;;;;;;;;6370169;22;20376;-70
2021/09/07 16:08:37;;;;;;;7.63;6.93;;;;;;;;;;6380906;22;20504;-71
2021/09/07 16:11:03;;;;;;;6.87;6.17;;;;;;;;;;6380624;22;20387;-71
2021/09/07 16:13:29;;;;;;;7.20;6.50;;;;;;;;;;6380878;22;20818;-71
2021/09/07 16:15:55;;;;;;;6.73;6.00;;;;;;;;;;6380612;22;20727;-71
2021/09/07 16:24:12;;;;;;;6.83;6.13;;;;;;;;;;6380112;22;20426;-73
2021/09/07 16:26:40;;;;;;;7.50;6.37;;;;;;;;;;6369522;22;20450;-73
2021/09/07 16:29:06;;;;;;;7.50;6.60;;;;;;;;;;6341928;22;20472;-71
2021/09/07 16:31:32;;;;;;;7.87;5.73;;;;;;;;;;6380350;22;20528;-72
2021/09/07 16:33:58;;;;;;;7.43;6.37;;;;;;;;;;6380578;22;20858;-70
2021/09/07 16:36:24;;;;;;;9.73;7.07;;;;;;;;;;6380309;22;20447;-72
2021/09/07 16:38:50;;;;;;;9.73;6.97;;;;;;;;;;6370064;22;20380;-72
2021/09/07 16:41:16;;;;;;;9.00;7.83;;;;;;;;;;6380349;22;20918;-72
2021/09/07 16:43:42;;;;;;;7.40;6.70;;;;;;;;;;6380267;22;20503;-71
2021/09/07 16:46:08;;;;;;;13.27;7.33;;;;;;;;;;6379892;22;20426;-71
2021/09/07 16:48:34;;;;;;;7.37;6.67;;;;;;;;;;6370092;22;20371;-71